Time;durP1;ratioP1;P1;durP2;ratioP2;P2;SDS_P1;SDS_P2;PMS_P1;PMS_P2;Temp;Humidity;BMP_temperature;BMP_pressure;BME280_temperature;BME280_humidity;BME280_pressure;Samples;Min_cycle;Max_cycle;Signal;HPM_P1;HPM_P2
2021/04/08 00:01:58;;;;;;;5.70;5.03;;;4.10;99.90;;;;;;5070404;28;20496;-64
2021/04/08 00:04:24;;;;;;;6.20;5.60;;;4.00;99.90;;;;;;5068619;28;20400;-64
2021/04/08 00:06:50;;;;;;;7.20;5.90;;;4.00;99.90;;;;;;5049987;28;21010;-64
2021/04/08 00:09:15;;;;;;;8.03;6.67;;;4.10;99.90;;;;;;5050498;28;20178;-64
2021/04/08 00:11:41;;;;;;;5.50;5.00;;;4.20;99.90;;;;;;5050254;28;20229;-64
2021/04/08 00:14:08;;;;;;;8.83;6.30;;;4.10;99.90;;;;;;5049980;28;20221;-64
2021/04/08 00:16:34;;;;;;;7.50;6.80;;;3.90;99.90;;;;;;5050315;28;20683;-64
2021/04/08 00:19:00;;;;;;;7.63;6.67;;;3.70;99.90;;;;;;5050401;28;20420;-64
2021/04/08 00:21:25;;;;;;;6.07;5.57;;;3.60;99.90;;;;;;5049970;28;20483;-64
2021/04/08 00:23:51;;;;;;;6.17;5.57;;;3.40;99.90;;;;;;5050273;28;20171;-64
2021/04/08 00:26:16;;;;;;;7.10;5.57;;;3.50;99.90;;;;;;5050073;28;20211;-64
2021/04/08 00:28:42;;;;;;;8.60;6.13;;;3.40;99.90;;;;;;5049785;28;20655;-64
2021/04/08 00:31:08;;;;;;;6.10;5.50;;;3.30;99.90;;;;;;5050112;28;20177;-64
2021/04/08 00:33:33;;;;;;;6.50;5.90;;;3.30;99.90;;;;;;5049840;28;20178;-64
2021/04/08 00:35:59;;;;;;;5.77;4.80;;;3.40;99.90;;;;;;5049356;28;20199;-64
2021/04/08 00:38:24;;;;;;;6.80;5.90;;;3.70;99.90;;;;;;5049796;28;20601;-64
2021/04/08 00:40:50;;;;;;;5.90;5.40;;;3.80;99.90;;;;;;5049950;28;20250;-64
2021/04/08 00:43:16;;;;;;;5.83;5.33;;;3.70;99.90;;;;;;5048244;28;20171;-64
2021/04/08 00:45:41;;;;;;;6.70;6.00;;;3.80;99.90;;;;;;5049866;28;20178;-64
2021/04/08 00:48:07;;;;;;;7.27;6.17;;;3.70;99.90;;;;;;5048333;28;20289;-64
2021/04/08 00:50:32;;;;;;;7.10;6.40;;;3.70;99.90;;;;;;5054959;28;21209;-64
2021/04/08 00:53:11;;;;;;;8.27;5.30;;;3.70;99.90;;;;;;5070196;28;20263;-63
2021/04/08 00:55:48;;;;;;;5.93;5.30;;;3.70;99.90;;;;;;5069418;28;20779;-64
2021/04/08 00:58:16;;;;;;;7.80;6.03;;;3.60;99.90;;;;;;5069010;28;20412;-64
2021/04/08 01:00:43;;;;;;;6.53;5.57;;;3.80;99.90;;;;;;5069166;28;20414;-64
2021/04/08 01:03:10;;;;;;;7.20;6.00;;;3.70;99.90;;;;;;5069095;28;20443;-64
2021/04/08 01:05:36;;;;;;;6.57;5.90;;;3.80;99.90;;;;;;5057276;28;20413;-64
2021/04/08 01:08:02;;;;;;;6.73;5.40;;;3.90;99.90;;;;;;5038157;28;20448;-64
2021/04/08 01:10:28;;;;;;;7.90;4.77;;;4.00;99.90;;;;;;5035857;28;20406;-64
2021/04/08 01:13:00;;;;;;;4.90;4.47;;;3.90;99.90;;;;;;5035694;28;20422;-64
2021/04/08 01:15:27;;;;;;;5.40;5.00;;;4.10;99.90;;;;;;5036048;28;20199;-64
2021/04/08 01:18:02;;;;;;;5.73;5.23;;;4.30;99.90;;;;;;5035669;28;20421;-64
2021/04/08 01:20:52;;;;;;;6.43;4.63;;;4.40;99.90;;;;;;5035739;28;20508;-64
2021/04/08 01:24:01;;;;;;;6.40;5.70;;;4.40;99.90;;;;;;5035905;28;20391;-64
2021/04/08 01:26:39;;;;;;;5.83;5.23;;;4.60;99.90;;;;;;5035844;28;20462;-64
2021/04/08 01:29:40;;;;;;;7.77;5.93;;;4.60;99.90;;;;;;5040559;28;20428;-64
2021/04/08 01:32:07;;;;;;;7.00;6.30;;;4.60;99.90;;;;;;5051393;28;20424;-64
2021/04/08 01:34:35;;;;;;;8.23;6.20;;;4.60;99.90;;;;;;5052505;28;20410;-64
2021/04/08 01:37:07;;;;;;;7.73;5.90;;;4.70;99.90;;;;;;5035127;28;20596;-64
2021/04/08 01:39:34;;;;;;;7.60;6.83;;;4.60;99.90;;;;;;5035640;28;20383;-64
2021/04/08 01:42:00;;;;;;;6.60;5.70;;;4.50;99.90;;;;;;5035568;28;20813;-64
2021/04/08 01:44:26;;;;;;;7.97;5.70;;;4.60;99.90;;;;;;5035080;28;20754;-64
2021/04/08 01:47:06;;;;;;;6.33;5.53;;;4.50;99.90;;;;;;5035135;28;20794;-64
2021/04/08 01:49:34;;;;;;;5.77;5.37;;;4.60;99.90;;;;;;5035140;28;20406;-64
2021/04/08 01:52:00;;;;;;;7.60;6.00;;;4.50;99.90;;;;;;5034715;28;20508;-64
2021/04/08 01:54:30;;;;;;;8.93;6.87;;;4.50;99.90;;;;;;5035015;28;20442;-64
2021/04/08 01:57:01;;;;;;;6.87;5.70;;;4.40;99.90;;;;;;5034811;28;20473;-64
2021/04/08 01:59:28;;;;;;;6.13;5.10;;;4.50;99.90;;;;;;5034886;28;20751;-64
2021/04/08 02:01:57;;;;;;;8.13;5.10;;;4.20;99.90;;;;;;5035162;28;20848;-64
2021/04/08 02:04:25;;;;;;;8.40;5.83;;;4.20;99.90;;;;;;5034825;28;20398;-64
2021/04/08 02:06:51;;;;;;;6.30;5.70;;;4.30;99.90;;;;;;5034386;28;20429;-64
2021/04/08 02:09:19;;;;;;;5.80;5.20;;;4.30;99.90;;;;;;5035040;28;20407;-64
2021/04/08 02:11:47;;;;;;;5.90;5.30;;;4.30;99.90;;;;;;5034976;28;20413;-64
2021/04/08 02:14:14;;;;;;;6.20;5.53;;;4.20;99.90;;;;;;5034588;28;20414;-64
2021/04/08 02:16:44;;;;;;;5.90;4.70;;;4.20;99.90;;;;;;5034527;28;20540;-64
2021/04/08 02:19:12;;;;;;;5.30;4.80;;;4.30;99.90;;;;;;5033972;28;20398;-64
2021/04/08 02:21:39;;;;;;;5.97;5.30;;;4.20;99.90;;;;;;5034291;28;20934;-64
2021/04/08 02:24:05;;;;;;;6.50;4.13;;;4.20;99.90;;;;;;5034560;28;20417;-64
2021/04/08 02:26:31;;;;;;;5.10;4.40;;;4.00;99.90;;;;;;5034755;28;20946;-63
2021/04/08 02:28:59;;;;;;;8.50;4.67;;;4.10;99.90;;;;;;5034314;28;20414;-63
2021/04/08 02:31:25;;;;;;;5.77;4.13;;;4.10;99.90;;;;;;5034899;28;20914;-64
2021/04/08 02:33:51;;;;;;;4.70;4.30;;;4.30;99.90;;;;;;5034369;28;20440;-64
2021/04/08 02:36:17;;;;;;;8.63;4.73;;;4.20;99.90;;;;;;5033873;28;20554;-64
2021/04/08 02:38:43;;;;;;;5.23;4.47;;;4.20;99.90;;;;;;5034294;28;20447;-64
2021/04/08 02:41:09;;;;;;;4.80;4.27;;;4.30;99.90;;;;;;5034756;28;20642;-64
2021/04/08 02:43:36;;;;;;;6.00;5.10;;;4.30;99.90;;;;;;5034006;28;20770;-64
2021/04/08 02:46:02;;;;;;;7.67;4.50;;;4.40;99.90;;;;;;5034287;28;20924;-64
2021/04/08 02:48:28;;;;;;;5.90;4.07;;;4.40;99.90;;;;;;5034421;28;20416;-64
2021/04/08 02:50:58;;;;;;;6.63;4.27;;;4.50;99.90;;;;;;5033802;28;20420;-64
2021/04/08 02:53:42;;;;;;;6.40;4.30;;;4.50;99.90;;;;;;5034335;28;20164;-64
2021/04/08 02:56:30;;;;;;;4.73;4.03;;;4.50;99.90;;;;;;5056004;28;20465;-64
2021/04/08 02:59:07;;;;;;;7.83;4.53;;;4.40;99.90;;;;;;5053701;28;20855;-64
2021/04/08 03:01:40;;;;;;;6.23;4.43;;;4.30;99.90;;;;;;5054072;28;20381;-64
2021/04/08 03:04:06;;;;;;;5.30;4.20;;;4.30;99.90;;;;;;5053918;28;20389;-64
2021/04/08 03:06:34;;;;;;;6.73;3.73;;;4.40;99.90;;;;;;5033778;28;20447;-64
2021/04/08 03:09:02;;;;;;;3.57;3.27;;;4.40;99.90;;;;;;5033629;28;20425;-64
2021/04/08 03:11:31;;;;;;;4.63;4.13;;;4.30;99.90;;;;;;5033605;28;20471;-64
2021/04/08 03:14:03;;;;;;;6.03;4.30;;;4.40;99.90;;;;;;5033450;28;20421;-64
2021/04/08 03:16:35;;;;;;;5.87;3.70;;;4.50;99.90;;;;;;5033773;28;20453;-64
2021/04/08 03:19:02;;;;;;;4.70;4.03;;;4.50;99.90;;;;;;5033707;28;20387;-64
2021/04/08 03:21:28;;;;;;;3.70;3.27;;;4.60;99.90;;;;;;5033325;28;20421;-64
2021/04/08 03:23:57;;;;;;;6.80;3.50;;;4.40;99.90;;;;;;5033740;28;20406;-64
2021/04/08 03:26:27;;;;;;;9.80;4.70;;;4.40;99.90;;;;;;5033383;28;20426;-64
2021/04/08 03:28:53;;;;;;;6.40;4.30;;;4.40;99.90;;;;;;5033668;28;20410;-64
2021/04/08 03:31:20;;;;;;;4.13;3.50;;;4.40;99.90;;;;;;5033298;28;20476;-64
2021/04/08 03:33:46;;;;;;;4.40;3.50;;;4.50;99.90;;;;;;5033638;28;20414;-64
2021/04/08 03:36:13;;;;;;;4.20;3.80;;;4.60;99.90;;;;;;5033019;28;20481;-64
2021/04/08 03:38:40;;;;;;;5.13;3.50;;;4.70;99.90;;;;;;5065135;23;20486;-61
2021/04/08 03:41:06;;;;;;;6.10;3.30;;;4.70;99.90;;;;;;5042668;28;20421;-61
2021/04/08 03:43:32;;;;;;;5.90;3.87;;;4.40;99.90;;;;;;5042128;28;20406;-60
2021/04/08 03:46:00;;;;;;;5.47;3.67;;;4.20;99.90;;;;;;5041907;28;20437;-62
2021/04/08 03:48:27;;;;;;;6.37;4.30;;;4.30;99.90;;;;;;5042189;28;20933;-62
2021/04/08 03:50:53;;;;;;;5.37;4.00;;;4.30;99.90;;;;;;5042298;28;20406;-62
2021/04/08 03:53:20;;;;;;;5.00;4.50;;;4.30;99.90;;;;;;5042309;28;20528;-60
2021/04/08 03:55:47;;;;;;;4.80;3.93;;;4.50;99.90;;;;;;5042008;28;20864;-62
2021/04/08 03:58:13;;;;;;;5.50;4.30;;;4.70;99.90;;;;;;5042533;28;20442;-62
2021/04/08 04:00:40;;;;;;;4.50;3.93;;;4.50;99.90;;;;;;5041105;28;20503;-62
2021/04/08 04:03:14;;;;;;;4.53;4.10;;;4.30;99.90;;;;;;5042080;28;20416;-62
2021/04/08 04:05:41;;;;;;;6.87;3.93;;;4.30;99.90;;;;;;5041456;28;20425;-61
2021/04/08 04:08:08;;;;;;;5.03;4.10;;;4.20;99.90;;;;;;5040942;28;20453;-62
2021/04/08 04:10:36;;;;;;;6.13;3.87;;;4.20;99.90;;;;;;5042110;28;20449;-63
2021/04/08 04:13:03;;;;;;;6.57;3.77;;;4.40;99.90;;;;;;5044683;28;20421;-62
2021/04/08 04:15:30;;;;;;;4.53;3.33;;;4.50;99.90;;;;;;5044954;28;20838;-62
2021/04/08 04:17:56;;;;;;;5.03;4.53;;;4.70;99.90;;;;;;5046315;28;20444;-62
2021/04/08 04:20:21;;;;;;;4.27;3.23;;;4.60;99.90;;;;;;5044860;28;20399;-63
2021/04/08 04:22:47;;;;;;;4.07;3.67;;;4.60;99.90;;;;;;5044721;28;20556;-63
2021/04/08 04:25:13;;;;;;;4.00;3.60;;;4.50;99.90;;;;;;5045458;28;20183;-62
2021/04/08 04:27:39;;;;;;;4.87;3.60;;;4.70;99.90;;;;;;5045140;28;20191;-62
2021/04/08 04:30:07;;;;;;;3.90;3.47;;;4.60;99.90;;;;;;5044893;28;20406;-61
2021/04/08 04:32:33;;;;;;;4.97;4.47;;;4.60;99.90;;;;;;5045525;28;20421;-64
2021/04/08 04:34:59;;;;;;;4.80;3.53;;;4.60;99.90;;;;;;5045885;28;20447;-63
2021/04/08 04:37:25;;;;;;;3.50;3.20;;;4.60;99.90;;;;;;5043579;28;20434;-63
2021/04/08 04:39:50;;;;;;;8.80;3.83;;;4.70;99.90;;;;;;5044728;28;20616;-63
2021/04/08 04:42:16;;;;;;;3.80;3.50;;;4.70;99.90;;;;;;5045992;28;20167;-62
2021/04/08 04:44:42;;;;;;;7.03;4.30;;;4.80;99.90;;;;;;5048280;28;20171;-63
2021/04/08 04:47:07;;;;;;;4.70;3.90;;;4.70;99.90;;;;;;5049165;28;20183;-63
2021/04/08 04:49:33;;;;;;;6.90;4.27;;;4.60;99.90;;;;;;5048436;28;20175;-63
2021/04/08 04:51:59;;;;;;;5.60;3.73;;;4.50;99.90;;;;;;5049454;28;20175;-63
2021/04/08 04:54:25;;;;;;;7.80;4.37;;;4.40;99.90;;;;;;5051605;28;20164;-63
2021/04/08 04:56:50;;;;;;;7.83;4.40;;;4.40;99.90;;;;;;5049865;28;20464;-64
2021/04/08 04:59:16;;;;;;;6.30;5.20;;;4.60;99.90;;;;;;5049314;28;20172;-63
2021/04/08 05:01:42;;;;;;;7.97;4.33;;;4.80;99.90;;;;;;5048551;28;20167;-63
2021/04/08 05:04:08;;;;;;;6.07;4.20;;;4.70;99.90;;;;;;5048826;28;20436;-63
2021/04/08 05:06:33;;;;;;;7.10;3.80;;;4.80;99.90;;;;;;5048577;28;20274;-63
2021/04/08 05:08:59;;;;;;;4.80;4.17;;;4.80;99.90;;;;;;5049134;28;20255;-63
2021/04/08 05:11:24;;;;;;;4.93;4.40;;;4.80;99.90;;;;;;5049440;28;20167;-63
2021/04/08 05:13:50;;;;;;;6.17;5.23;;;4.90;99.90;;;;;;5048926;28;20175;-62
2021/04/08 05:16:16;;;;;;;8.87;6.07;;;4.60;99.90;;;;;;5048996;28;20203;-63
2021/04/08 05:18:42;;;;;;;6.73;5.47;;;4.60;99.90;;;;;;5048909;28;20450;-63
2021/04/08 05:21:08;;;;;;;4.20;3.80;;;4.80;99.90;;;;;;5048701;28;20159;-62
2021/04/08 05:23:34;;;;;;;5.40;4.30;;;4.70;99.90;;;;;;5048222;28;20406;-63
2021/04/08 05:25:59;;;;;;;5.27;4.77;;;4.60;99.90;;;;;;5049163;28;20254;-62
2021/04/08 05:28:25;;;;;;;5.90;4.60;;;4.50;99.90;;;;;;5047462;28;20196;-62
2021/04/08 05:30:50;;;;;;;6.77;4.67;;;4.60;99.90;;;;;;5048649;28;20290;-62
2021/04/08 05:33:16;;;;;;;5.97;4.33;;;4.60;99.90;;;;;;5047867;28;20177;-62
2021/04/08 05:35:42;;;;;;;5.10;4.30;;;4.70;99.90;;;;;;5048762;28;20264;-62
2021/04/08 05:38:07;;;;;;;6.13;4.30;;;4.60;99.90;;;;;;5047956;28;20292;-62
2021/04/08 05:40:33;;;;;;;6.40;4.40;;;4.70;99.90;;;;;;5048002;28;20163;-62
2021/04/08 05:42:58;;;;;;;7.07;4.90;;;4.70;99.90;;;;;;5048688;28;20286;-62
2021/04/08 05:45:27;;;;;;;8.83;4.97;;;4.60;99.90;;;;;;5046693;28;20203;-62
2021/04/08 05:47:53;;;;;;;10.83;5.83;;;4.60;99.90;;;;;;5048476;28;20607;-62
2021/04/08 05:50:19;;;;;;;7.37;5.80;;;4.60;99.90;;;;;;5049054;28;20406;-63
2021/04/08 05:52:45;;;;;;;7.23;4.97;;;4.70;99.90;;;;;;5044318;28;20445;-62
2021/04/08 05:55:11;;;;;;;6.17;5.33;;;4.70;99.90;;;;;;5041373;28;20290;-61
2021/04/08 05:57:37;;;;;;;5.50;4.67;;;4.70;99.90;;;;;;5043207;28;20600;-62
2021/04/08 06:00:04;;;;;;;5.50;4.37;;;4.70;99.90;;;;;;5041688;28;20422;-62
2021/04/08 06:02:30;;;;;;;6.30;4.87;;;4.90;99.90;;;;;;5040366;28;20281;-62
2021/04/08 06:04:55;;;;;;;8.07;4.77;;;4.80;99.90;;;;;;5041070;28;20505;-60
2021/04/08 06:07:21;;;;;;;5.30;4.23;;;4.70;99.90;;;;;;5040968;28;20626;-62
2021/04/08 06:09:47;;;;;;;6.33;4.10;;;4.70;99.90;;;;;;5041929;28;20255;-62
2021/04/08 06:12:12;;;;;;;6.33;4.40;;;4.60;99.90;;;;;;5042302;28;20238;-63
2021/04/08 06:14:38;;;;;;;5.20;4.20;;;4.70;99.90;;;;;;5047279;28;20167;-63
2021/04/08 06:17:05;;;;;;;6.07;4.70;;;4.70;99.90;;;;;;5048024;28;20266;-63
2021/04/08 06:19:31;;;;;;;5.40;4.87;;;4.70;99.90;;;;;;5047624;28;20414;-63
2021/04/08 06:21:59;;;;;;;5.40;3.80;;;4.60;99.90;;;;;;5047325;28;20402;-62
2021/04/08 06:24:25;;;;;;;6.47;3.90;;;4.60;99.90;;;;;;5046989;28;20481;-62
2021/04/08 06:26:51;;;;;;;8.13;4.70;;;4.70;99.90;;;;;;5046987;28;20414;-62
2021/04/08 06:29:16;;;;;;;9.13;4.30;;;4.80;99.90;;;;;;5046135;28;20430;-62
2021/04/08 06:31:43;;;;;;;4.70;4.13;;;4.60;99.90;;;;;;5046990;28;20420;-63
2021/04/08 06:34:09;;;;;;;6.40;3.73;;;4.80;99.90;;;;;;5044716;28;20179;-62
2021/04/08 06:36:35;;;;;;;7.20;3.77;;;4.70;99.90;;;;;;5043139;28;20517;-62
2021/04/08 06:39:00;;;;;;;7.67;4.20;;;4.80;99.90;;;;;;5042556;28;20309;-62
2021/04/08 06:41:26;;;;;;;5.60;4.60;;;4.90;99.90;;;;;;5043541;28;20185;-62
2021/04/08 06:43:53;;;;;;;7.20;4.97;;;5.00;99.90;;;;;;5041409;28;20413;-61
2021/04/08 06:46:24;;;;;;;5.50;5.00;;;5.40;99.90;;;;;;5042547;28;20180;-61
2021/04/08 06:49:03;;;;;;;6.97;6.00;;;5.10;99.90;;;;;;5042531;28;20514;-61
2021/04/08 06:51:32;;;;;;;6.10;4.77;;;5.30;99.90;;;;;;5041202;28;20485;-61
2021/04/08 06:54:02;;;;;;;8.00;5.43;;;5.50;99.90;;;;;;5045273;28;20410;-62
2021/04/08 06:56:30;;;;;;;8.93;6.00;;;5.30;99.90;;;;;;5046073;28;20888;-62
2021/04/08 06:58:57;;;;;;;8.23;6.00;;;5.50;99.90;;;;;;5049017;28;20579;-62
2021/04/08 07:01:24;;;;;;;7.27;5.83;;;5.60;99.90;;;;;;5065491;28;20409;-62
2021/04/08 07:03:52;;;;;;;7.53;6.20;;;5.60;99.90;;;;;;5065521;28;20420;-63
2021/04/08 07:06:17;;;;;;;11.13;6.60;;;5.40;99.90;;;;;;5046931;28;20472;-66
2021/04/08 07:08:45;;;;;;;9.90;8.00;;;5.30;99.90;;;;;;5044267;28;20434;-62
2021/04/08 07:11:11;;;;;;;137.67;88.13;;;5.20;99.90;;;;;;5044671;28;20179;-62
2021/04/08 07:13:37;;;;;;;11.57;7.10;;;5.40;99.90;;;;;;5044188;28;20406;-64
2021/04/08 07:16:03;;;;;;;13.23;11.80;;;5.30;99.90;;;;;;5044629;28;20969;-62
2021/04/08 07:18:28;;;;;;;19.20;14.57;;;5.50;99.90;;;;;;5034778;28;20422;-64
2021/04/08 07:20:56;;;;;;;26.60;18.53;;;5.50;99.90;;;;;;5033717;28;20441;-64
2021/04/08 07:23:22;;;;;;;31.77;24.70;;;5.70;99.90;;;;;;5033742;28;20195;-64
2021/04/08 07:26:08;;;;;;;19.60;15.50;;;5.60;99.90;;;;;;5033904;28;20810;-64
2021/04/08 07:28:41;;;;;;;23.33;20.93;;;5.80;99.90;;;;;;5033646;28;20434;-64
2021/04/08 07:31:21;;;;;;;11.03;9.90;;;5.60;99.40;;;;;;5033747;28;20493;-62
2021/04/08 07:33:46;;;;;;;12.40;9.60;;;5.60;99.60;;;;;;5033467;28;20922;-63
2021/04/08 07:36:24;;;;;;;10.73;9.67;;;5.70;99.90;;;;;;5033110;28;20516;-63
2021/04/08 07:38:50;;;;;;;7.60;6.90;;;5.90;99.90;;;;;;5033345;28;20195;-64
2021/04/08 07:41:27;;;;;;;8.83;6.63;;;6.10;99.30;;;;;;5033448;28;20402;-64
2021/04/08 07:44:02;;;;;;;9.93;8.20;;;6.40;98.90;;;;;;5033391;28;20728;-62
2021/04/08 07:46:31;;;;;;;11.73;8.07;;;6.70;98.80;;;;;;5033185;28;20420;-63
2021/04/08 07:48:57;;;;;;;8.03;7.17;;;7.00;98.80;;;;;;5033295;28;20560;-64
2021/04/08 07:51:33;;;;;;;8.30;7.53;;;6.80;98.00;;;;;;5032934;28;20870;-63
2021/04/08 07:54:14;;;;;;;8.90;7.70;;;6.60;97.80;;;;;;5033433;28;20210;-63
2021/04/08 07:56:40;;;;;;;9.50;8.50;;;6.20;98.20;;;;;;5033161;28;20533;-64
2021/04/08 07:59:23;;;;;;;8.20;7.17;;;6.20;99.30;;;;;;5027616;28;20421;-63
2021/04/08 08:02:04;;;;;;;11.50;8.57;;;6.40;98.10;;;;;;5033156;28;20747;-63
2021/04/08 08:04:31;;;;;;;9.03;8.30;;;6.30;97.60;;;;;;5033518;28;20533;-63
2021/04/08 08:06:58;;;;;;;8.70;6.87;;;6.60;98.20;;;;;;5032795;28;20406;-62
2021/04/08 08:09:24;;;;;;;12.70;8.40;;;6.70;98.30;;;;;;5032280;28;20913;-63
2021/04/08 08:11:51;;;;;;;8.67;7.80;;;6.60;97.20;;;;;;5033370;28;20497;-63
2021/04/08 08:14:34;;;;;;;8.90;6.83;;;6.80;97.50;;;;;;5032907;28;20410;-63
2021/04/08 08:17:04;;;;;;;7.27;6.30;;;7.30;96.70;;;;;;5032467;28;20471;-62
2021/04/08 08:19:31;;;;;;;6.80;6.20;;;7.10;96.40;;;;;;5037118;28;20460;-63
2021/04/08 08:21:57;;;;;;;8.37;7.57;;;6.80;95.80;;;;;;5036975;28;20410;-62
2021/04/08 08:24:23;;;;;;;7.13;6.43;;;6.70;95.40;;;;;;5035659;28;20420;-62
2021/04/08 08:26:50;;;;;;;7.27;6.50;;;6.80;96.40;;;;;;5037250;28;20602;-62
2021/04/08 08:29:17;;;;;;;7.90;6.70;;;7.10;95.70;;;;;;5037065;28;20590;-64
2021/04/08 08:32:04;;;;;;;6.10;5.50;;;7.40;95.50;;;;;;5037049;28;20410;-64
2021/04/08 08:34:35;;;;;;;6.80;5.20;;;7.50;95.30;;;;;;5036947;28;20682;-65
2021/04/08 08:37:13;;;;;;;5.90;5.37;;;7.70;95.20;;;;;;5036609;28;20469;-65
2021/04/08 08:39:41;;;;;;;5.10;4.60;;;8.00;94.80;;;;;;5037291;28;20440;-65
2021/04/08 08:42:09;;;;;;;7.70;5.97;;;8.00;94.10;;;;;;5037262;28;20413;-64
2021/04/08 08:44:35;;;;;;;8.00;5.20;;;7.90;94.40;;;;;;5036669;28;20759;-65
2021/04/08 08:47:13;;;;;;;7.50;5.50;;;8.10;94.00;;;;;;5036758;28;20422;-64
2021/04/08 08:49:43;;;;;;;5.63;4.77;;;8.20;92.90;;;;;;5036455;28;20394;-65
2021/04/08 08:52:21;;;;;;;5.10;4.40;;;8.10;91.80;;;;;;5035743;28;20409;-65
2021/04/08 08:54:49;;;;;;;5.97;5.47;;;8.20;92.20;;;;;;5038028;28;20417;-65
2021/04/08 08:57:16;;;;;;;8.33;4.90;;;8.50;91.60;;;;;;5036294;28;20493;-64
2021/04/08 08:59:47;;;;;;;5.83;5.23;;;8.10;90.80;;;;;;5036421;28;20403;-64
2021/04/08 09:02:13;;;;;;;6.28;5.18;;;8.00;90.70;;;;;;5036285;28;20406;-64
2021/04/08 09:04:39;;;;;;;6.07;5.17;;;7.90;91.20;;;;;;5036365;28;20205;-63
2021/04/08 09:07:11;;;;;;;6.63;5.70;;;7.70;91.60;;;;;;5036925;28;20765;-62
2021/04/08 09:09:44;;;;;;;6.83;5.43;;;8.00;92.90;;;;;;5036530;28;20430;-63
2021/04/08 09:12:15;;;;;;;6.43;4.77;;;7.90;91.20;;;;;;5037193;28;20383;-62
2021/04/08 09:14:42;;;;;;;6.60;4.70;;;7.70;91.10;;;;;;5044826;28;20552;-64
2021/04/08 09:17:07;;;;;;;7.07;5.80;;;7.80;91.10;;;;;;5047077;28;20462;-63
2021/04/08 09:19:34;;;;;;;5.97;5.37;;;8.00;90.80;;;;;;5036571;28;20398;-64
2021/04/08 09:22:11;;;;;;;6.53;4.80;;;7.90;90.20;;;;;;5041650;28;20182;-64
2021/04/08 09:24:40;;;;;;;6.10;5.00;;;8.40;90.80;;;;;;5043767;28;20391;-64
2021/04/08 09:27:07;;;;;;;5.90;5.30;;;8.50;89.10;;;;;;5036516;28;20454;-63
2021/04/08 09:29:58;;;;;;;8.67;4.80;;;8.20;90.30;;;;;;5034911;28;20770;-64
2021/04/08 09:32:48;;;;;;;6.13;4.53;;;7.90;90.50;;;;;;5034548;28;20822;-63
2021/04/08 09:35:16;;;;;;;6.83;5.20;;;7.80;90.10;;;;;;5034648;28;20439;-62
2021/04/08 09:37:45;;;;;;;5.17;4.33;;;7.70;91.00;;;;;;5064223;22;20476;-63
2021/04/08 09:40:36;;;;;;;6.07;4.70;;;7.80;90.80;;;;;;5055384;28;20401;-63
2021/04/08 09:43:05;;;;;;;4.50;4.10;;;7.70;88.90;;;;;;5048369;28;20773;-63
2021/04/08 09:45:32;;;;;;;5.17;3.93;;;7.80;89.70;;;;;;5055148;28;20444;-63
2021/04/08 09:48:12;;;;;;;4.97;4.57;;;7.70;88.00;;;;;;5055161;28;20497;-62
2021/04/08 09:50:52;;;;;;;5.00;4.13;;;7.60;87.50;;;;;;5054319;28;20398;-62
2021/04/08 09:53:23;;;;;;;9.00;4.73;;;7.70;87.30;;;;;;5053427;28;20513;-63
2021/04/08 09:55:52;;;;;;;6.17;4.60;;;7.90;90.00;;;;;;5053637;28;20450;-63
2021/04/08 09:58:23;;;;;;;5.67;4.23;;;7.90;88.20;;;;;;5054770;28;20915;-63
2021/04/08 10:00:51;;;;;;;5.03;4.37;;;8.00;87.50;;;;;;5054916;28;20472;-63
2021/04/08 10:03:29;;;;;;;9.47;5.00;;;8.00;88.20;;;;;;5054558;28;20446;-63
2021/04/08 10:05:55;;;;;;;6.13;4.03;;;8.40;88.20;;;;;;5054622;28;20444;-63
2021/04/08 10:08:22;;;;;;;6.63;4.40;;;8.80;87.80;;;;;;5054197;28;20527;-63
2021/04/08 10:10:48;;;;;;;7.93;4.80;;;8.60;88.40;;;;;;5054426;28;20406;-63
2021/04/08 10:13:14;;;;;;;4.30;3.73;;;8.90;88.70;;;;;;5054530;28;20447;-63
2021/04/08 10:15:39;;;;;;;10.50;4.83;;;9.00;85.10;;;;;;5054190;28;20853;-63
2021/04/08 10:18:25;;;;;;;6.90;5.00;;;8.70;86.80;;;;;;5054227;28;20524;-63
2021/04/08 10:20:56;;;;;;;6.30;5.70;;;8.80;88.90;;;;;;5054442;28;20197;-63
2021/04/08 10:23:33;;;;;;;6.30;5.40;;;8.80;87.70;;;;;;5054360;28;20946;-63
2021/04/08 10:26:01;;;;;;;10.50;5.80;;;8.60;87.80;;;;;;5054830;28;20480;-63
2021/04/08 10:28:36;;;;;;;6.60;5.20;;;8.80;87.00;;;;;;5053868;28;20421;-62
2021/04/08 10:31:18;;;;;;;7.27;5.63;;;8.80;87.90;;;;;;5053909;28;20390;-63
2021/04/08 10:33:48;;;;;;;8.50;5.87;;;8.70;86.30;;;;;;5054083;28;20394;-62
2021/04/08 10:36:32;;;;;;;12.63;6.07;;;8.70;87.10;;;;;;5053661;28;20459;-62
2021/04/08 10:39:14;;;;;;;7.57;5.30;;;8.80;87.20;;;;;;5053665;28;20955;-62
2021/04/08 10:41:54;;;;;;;6.90;5.47;;;8.90;86.90;;;;;;5054065;28;20379;-62
2021/04/08 10:44:24;;;;;;;6.10;4.90;;;8.90;87.20;;;;;;5046915;28;20488;-62
2021/04/08 10:46:51;;;;;;;10.90;5.70;;;9.40;84.00;;;;;;5051732;28;20454;-62
2021/04/08 10:49:27;;;;;;;11.87;5.73;;;9.60;82.80;;;;;;5052633;28;20440;-63
2021/04/08 10:51:55;;;;;;;9.73;5.00;;;9.60;83.30;;;;;;5053471;28;20419;-62
2021/04/08 10:54:30;;;;;;;6.63;4.77;;;9.50;81.20;;;;;;5051324;28;20428;-63
2021/04/08 10:56:57;;;;;;;5.73;5.07;;;9.10;82.30;;;;;;5053813;28;20482;-62
2021/04/08 10:59:24;;;;;;;10.20;5.70;;;9.00;83.20;;;;;;5051938;28;20998;-62
2021/04/08 11:01:51;;;;;;;6.60;5.17;;;8.90;82.90;;;;;;5056107;28;20398;-63
2021/04/08 11:04:18;;;;;;;8.17;5.20;;;8.90;83.20;;;;;;5053718;28;20466;-62
2021/04/08 11:06:44;;;;;;;7.20;5.77;;;9.40;82.40;;;;;;5053673;28;20726;-63
2021/04/08 11:09:10;;;;;;;6.83;6.10;;;9.50;84.20;;;;;;5053337;28;20422;-63
2021/04/08 11:11:36;;;;;;;9.07;5.47;;;9.40;82.00;;;;;;5054149;28;20407;-63
2021/04/08 11:14:01;;;;;;;9.10;6.30;;;9.10;82.40;;;;;;5053450;28;20411;-63
2021/04/08 11:16:29;;;;;;;6.63;5.73;;;9.50;82.80;;;;;;5053017;28;20200;-56
2021/04/08 11:19:00;;;;;;;7.00;6.30;;;9.70;82.90;;;;;;5053328;28;20267;-60
2021/04/08 11:21:26;;;;;;;7.23;6.50;;;9.40;83.40;;;;;;5053591;28;20791;-61
2021/04/08 11:23:54;;;;;;;10.13;7.30;;;9.60;83.70;;;;;;5052995;28;20392;-61
2021/04/08 11:26:20;;;;;;;7.13;6.43;;;9.70;82.00;;;;;;5053420;28;20415;-60
2021/04/08 11:28:53;;;;;;;7.10;6.40;;;9.50;81.70;;;;;;5052803;28;20765;-60
2021/04/08 11:31:21;;;;;;;7.23;5.80;;;9.90;82.70;;;;;;5052905;28;20274;-61
2021/04/08 11:33:57;;;;;;;11.23;6.77;;;10.50;81.00;;;;;;5053356;28;20819;-60
2021/04/08 11:36:23;;;;;;;8.90;4.40;;;11.10;77.40;;;;;;5053058;28;20498;-62
2021/04/08 11:38:50;;;;;;;7.65;4.53;;;12.80;73.70;;;;;;5052058;28;20495;-61
2021/04/08 11:41:16;;;;;;;4.53;4.10;;;14.60;69.10;;;;;;5053125;28;20163;-56
2021/04/08 11:43:50;;;;;;;5.00;3.80;;;13.60;64.70;;;;;;5053062;28;20528;-56
2021/04/08 11:46:36;;;;;;;5.07;4.30;;;13.00;66.00;;;;;;5052355;28;20247;-56
2021/04/08 11:49:14;;;;;;;6.10;4.40;;;12.10;65.80;;;;;;5053357;28;20940;-56
2021/04/08 11:51:39;;;;;;;4.67;3.80;;;11.60;67.00;;;;;;5051929;28;20484;-55
2021/04/08 11:54:10;;;;;;;5.90;4.07;;;11.40;67.20;;;;;;5051419;28;20914;-56
2021/04/08 11:56:40;;;;;;;5.80;4.00;;;10.90;67.40;;;;;;5052266;28;20683;-57
2021/04/08 11:59:12;;;;;;;4.40;3.67;;;11.90;70.20;;;;;;5052790;28;20781;-55
2021/04/08 12:01:51;;;;;;;5.83;4.60;;;12.20;64.50;;;;;;5052601;28;20400;-57
2021/04/08 12:04:19;;;;;;;4.97;4.10;;;13.30;66.90;;;;;;5052670;28;20378;-56
2021/04/08 12:06:50;;;;;;;5.47;4.30;;;15.30;62.70;;;;;;5052285;28;20780;-59
2021/04/08 12:09:17;;;;;;;4.77;3.70;;;16.20;57.70;;;;;;5052363;28;20912;-58
2021/04/08 12:11:46;;;;;;;5.80;3.50;;;15.20;56.10;;;;;;5052720;28;20439;-60
2021/04/08 12:14:12;;;;;;;5.37;3.87;;;14.60;59.00;;;;;;5052417;28;20404;-59
2021/04/08 12:16:38;;;;;;;4.23;3.30;;;13.90;57.40;;;;;;5052367;28;20525;-56
2021/04/08 12:19:03;;;;;;;6.67;4.00;;;13.10;59.70;;;;;;5052673;28;20196;-58
2021/04/08 12:21:29;;;;;;;6.90;4.10;;;12.60;59.70;;;;;;5052400;28;20165;-56
2021/04/08 12:23:56;;;;;;;4.13;3.73;;;12.80;59.30;;;;;;5052133;28;20162;-57
2021/04/08 12:26:35;;;;;;;6.77;3.57;;;12.80;58.20;;;;;;5052498;28;20225;-57
2021/04/08 12:29:01;;;;;;;4.20;3.80;;;13.00;61.00;;;;;;5052399;28;20440;-56
2021/04/08 12:31:27;;;;;;;5.70;3.30;;;12.10;59.90;;;;;;5052201;28;20427;-57
2021/04/08 12:33:53;;;;;;;3.50;3.17;;;11.80;62.00;;;;;;5052194;28;20403;-58
2021/04/08 12:36:18;;;;;;;7.57;3.30;;;11.50;61.80;;;;;;5052021;28;20195;-59
2021/04/08 12:38:44;;;;;;;6.03;3.87;;;11.50;63.30;;;;;;5051819;28;20207;-57
2021/04/08 12:41:09;;;;;;;4.63;3.83;;;11.50;64.70;;;;;;5051707;28;20508;-55
2021/04/08 12:43:35;;;;;;;4.50;3.70;;;11.50;67.80;;;;;;5051814;28;20160;-55
2021/04/08 12:46:02;;;;;;;3.53;2.77;;;11.60;65.40;;;;;;5051941;28;20205;-56
2021/04/08 12:48:28;;;;;;;4.90;3.60;;;11.80;63.60;;;;;;5050950;28;20206;-54
2021/04/08 12:50:55;;;;;;;3.63;3.20;;;11.60;62.40;;;;;;5051623;28;20463;-56
2021/04/08 12:53:23;;;;;;;4.93;3.93;;;12.00;64.40;;;;;;5050816;28;20409;-57
2021/04/08 12:55:49;;;;;;;3.60;3.30;;;12.20;65.30;;;;;;5051931;28;20445;-58
2021/04/08 12:58:15;;;;;;;4.30;2.90;;;14.10;63.80;;;;;;5053277;28;20435;-57
2021/04/08 13:00:41;;;;;;;7.00;3.50;;;16.20;57.50;;;;;;5052082;28;20910;-57
2021/04/08 13:03:09;;;;;;;4.60;3.50;;;18.10;53.70;;;;;;5053092;28;20171;-56
2021/04/08 13:05:35;;;;;;;5.03;3.73;;;19.70;51.90;;;;;;5055945;28;20401;-58